KOMK

Details ICAO KOMK
Name OMAK
Region United States
Timezone America/Los_Angeles (UTC-8.0)
Plans Departing 2
Arriving 5
Stats Elevation 1,305 ft / 398 m (AMSL)
Location 48.464411° -119.518055°
Runways 1
Magnetic Variation 15.317° E
Sunrise 2017-12-18 15:46:57 UTC / 2017-12-18 07:46:57 Local
Sunset 2017-12-19 00:05:27 UTC / 2017-12-18 16:05:27 Local
Advertisement - Login to hide

Runways

ID Width Length Bearing (true) Bearing (mag) Surface Threshold Offset Overrun Length
17 150 ft / 46 m 4,667 ft / 1,422 m 189.09° 173.77° Asphalt 0 ft / 0 m 0 ft / 0 m
35 150 ft / 46 m 4,667 ft / 1,422 m 9.09° 353.77° Asphalt 0 ft / 0 m 0 ft / 0 m

Map

Weather


0- 5 10 15 20 25 30 35+ Temperature / ° C

Clouds and Precipitation
Forecast for 2017-12-18 12:00 UTC. Updated 19 minutes ago

Ground ~20,000 ft ~40,000 ft Winds

METAR

KOMK 181134Z AUTO 14003KT 10SM OVC009 01/M01 A2989 RMK AO2 T00061006

TAF

Not found

Frequencies

Recorded 118.32 MHz ASOS
Unicom 122.80 MHz CTAF/UNICOM
Warning: Do not use this data for real-world aviation or navigation. No guarantee of current accuracy is given.